createdAt,value
2022-10-31T00:01:20.081Z,12.60
2022-10-31T00:03:48.526Z,12.15
2022-10-31T00:06:19.006Z,11.80
2022-10-31T00:08:46.871Z,11.60
2022-10-31T00:11:14.704Z,12.20
2022-10-31T00:13:43.801Z,12.48
2022-10-31T00:16:18.068Z,12.23
2022-10-31T00:18:46.107Z,12.13
2022-10-31T00:21:13.756Z,11.47
2022-10-31T00:23:41.441Z,11.85
2022-10-31T00:26:09.299Z,12.07
2022-10-31T00:28:37.000Z,10.80
2022-10-31T00:31:07.899Z,10.00
2022-10-31T00:33:37.577Z,11.43
2022-10-31T00:36:06.165Z,10.85
2022-10-31T00:38:33.864Z,11.20
2022-10-31T00:41:01.561Z,10.73
2022-10-31T00:43:29.206Z,11.23
2022-10-31T00:45:56.880Z,10.03
2022-10-31T00:48:25.967Z,10.23
2022-10-31T00:50:53.591Z,10.73
2022-10-31T00:53:21.336Z,10.80
2022-10-31T00:55:49.049Z,10.65
2022-10-31T00:58:17.034Z,10.43
2022-10-31T01:00:48.068Z,9.77
2022-10-31T01:03:18.621Z,10.38
2022-10-31T01:05:47.679Z,10.07
2022-10-31T01:08:15.320Z,10.90
2022-10-31T01:10:42.929Z,10.13
2022-10-31T01:13:10.608Z,9.18
2022-10-31T01:15:38.283Z,9.77
2022-10-31T01:18:06.082Z,10.43
2022-10-31T01:20:33.760Z,9.55
2022-10-31T01:23:02.835Z,9.68
2022-10-31T01:25:30.503Z,8.93
2022-10-31T01:27:58.433Z,9.45
2022-10-31T01:30:26.442Z,9.07
2022-10-31T01:32:54.109Z,9.90
2022-10-31T01:35:21.741Z,9.45
2022-10-31T01:37:49.390Z,9.10
2022-10-31T01:40:18.573Z,9.85
2022-10-31T01:42:46.221Z,9.48
2022-10-31T01:45:16.000Z,8.67
2022-10-31T01:47:45.810Z,10.05
2022-10-31T01:50:17.946Z,9.60
2022-10-31T01:52:46.976Z,10.90
2022-10-31T01:55:20.185Z,10.18
2022-10-31T01:57:50.693Z,9.48
2022-10-31T02:00:18.967Z,9.65
2022-10-31T02:02:47.423Z,9.38
2022-10-31T02:05:18.850Z,10.30
2022-10-31T02:07:51.351Z,10.50
2022-10-31T02:10:21.427Z,9.90
2022-10-31T02:12:49.411Z,9.68
2022-10-31T02:15:17.209Z,10.40
2022-10-31T02:17:44.961Z,10.20
2022-10-31T02:20:17.375Z,9.88
2022-10-31T02:23:24.091Z,10.03
2022-10-31T02:26:20.570Z,9.63
2022-10-31T02:29:05.309Z,8.88
2022-10-31T02:31:37.389Z,8.32
2022-10-31T02:34:11.472Z,9.25
2022-10-31T02:36:44.602Z,9.97
2022-10-31T02:39:16.294Z,10.20
2022-10-31T02:41:49.338Z,10.18
2022-10-31T02:44:22.501Z,10.32
2022-10-31T02:46:54.474Z,11.23
2022-10-31T02:49:26.514Z,10.30
2022-10-31T02:51:54.494Z,9.40
2022-10-31T02:54:24.798Z,9.52
2022-10-31T02:56:54.842Z,9.85
2022-10-31T02:59:23.106Z,10.43
2022-10-31T03:02:23.111Z,10.35
2022-10-31T03:05:11.518Z,9.40
2022-10-31T03:07:44.714Z,9.85
2022-10-31T03:10:18.610Z,9.73
2022-10-31T03:12:52.217Z,8.98
2022-10-31T03:15:23.308Z,9.18
2022-10-31T03:17:59.635Z,8.77
2022-10-31T03:20:31.821Z,8.50
2022-10-31T03:23:00.352Z,8.80
2022-10-31T03:25:28.279Z,9.20
2022-10-31T03:27:56.584Z,8.88
2022-10-31T03:30:24.395Z,9.45
2022-10-31T03:32:55.695Z,9.18
2022-10-31T03:35:25.408Z,9.00
2022-10-31T03:37:54.447Z,9.23
2022-10-31T03:40:23.857Z,8.82
2022-10-31T03:42:55.106Z,9.02
2022-10-31T03:45:25.545Z,9.35
2022-10-31T03:47:55.185Z,9.27
2022-10-31T03:50:23.740Z,9.40
2022-10-31T03:52:57.187Z,9.38
2022-10-31T03:55:28.655Z,8.82
2022-10-31T03:58:01.593Z,9.03
2022-10-31T04:00:29.658Z,8.70
2022-10-31T04:03:02.620Z,8.52
2022-10-31T04:05:31.637Z,7.93
2022-10-31T04:08:00.869Z,8.27
2022-10-31T04:10:32.927Z,7.70
2022-10-31T04:13:05.235Z,8.13
2022-10-31T04:15:33.398Z,7.40
2022-10-31T04:18:03.565Z,7.40
2022-10-31T04:20:32.301Z,7.72
2022-10-31T04:22:59.964Z,8.27
2022-10-31T04:25:27.625Z,7.65
2022-10-31T04:27:55.494Z,8.00
2022-10-31T04:30:23.259Z,8.18
2022-10-31T04:32:50.903Z,8.30
2022-10-31T04:35:19.939Z,8.30
2022-10-31T04:37:47.643Z,8.40
2022-10-31T04:40:15.425Z,8.73
2022-10-31T04:42:43.035Z,8.27
2022-10-31T04:45:14.286Z,8.30
2022-10-31T04:47:44.523Z,9.35
2022-10-31T04:50:12.174Z,7.97
2022-10-31T04:52:42.554Z,7.95
2022-10-31T04:55:10.868Z,8.75
2022-10-31T04:57:42.701Z,8.43
2022-10-31T05:00:11.545Z,8.40
2022-10-31T05:02:45.402Z,7.78
2022-10-31T05:05:13.675Z,8.02
2022-10-31T05:07:44.056Z,8.27
2022-10-31T05:10:12.550Z,9.25
2022-10-31T05:12:40.572Z,9.30
2022-10-31T05:15:08.895Z,9.17
2022-10-31T05:17:36.563Z,8.93
2022-10-31T05:20:04.432Z,9.73
2022-10-31T05:22:32.032Z,8.68
2022-10-31T05:25:01.130Z,9.10
2022-10-31T05:27:28.748Z,9.20
2022-10-31T05:29:56.398Z,8.95
2022-10-31T05:32:24.174Z,8.60
2022-10-31T05:34:51.791Z,9.23
2022-10-31T05:37:19.429Z,9.55
2022-10-31T05:39:47.099Z,8.90
2022-10-31T05:42:16.137Z,8.55
2022-10-31T05:44:43.823Z,8.82
2022-10-31T05:47:11.562Z,9.23
2022-10-31T05:49:39.224Z,9.18
2022-10-31T05:52:06.903Z,9.23
2022-10-31T05:54:34.609Z,8.35
2022-10-31T05:57:02.285Z,8.13
2022-10-31T05:59:31.327Z,8.70
2022-10-31T06:01:59.016Z,9.07
2022-10-31T06:04:26.680Z,9.13
2022-10-31T06:06:54.382Z,8.85
2022-10-31T06:09:22.122Z,9.10
2022-10-31T06:11:49.768Z,7.93
2022-10-31T06:14:17.399Z,9.77
2022-10-31T06:16:46.479Z,10.70
2022-10-31T06:19:14.194Z,11.45
2022-10-31T06:21:41.810Z,11.07
2022-10-31T06:24:09.671Z,11.10
2022-10-31T06:26:37.317Z,10.02
2022-10-31T06:29:05.117Z,11.00
2022-10-31T06:31:32.795Z,11.25
2022-10-31T06:34:01.840Z,10.57
2022-10-31T06:36:29.534Z,10.73
2022-10-31T06:38:57.197Z,10.85
2022-10-31T06:41:24.874Z,9.80
2022-10-31T06:43:52.506Z,10.73
2022-10-31T06:46:20.286Z,10.80
2022-10-31T06:48:47.911Z,10.32
2022-10-31T06:51:16.956Z,11.80
2022-10-31T06:53:44.635Z,11.00
2022-10-31T06:56:12.271Z,10.80
2022-10-31T06:58:39.967Z,10.82
2022-10-31T07:01:08.027Z,11.50
2022-10-31T07:03:35.852Z,11.30
2022-10-31T07:06:03.513Z,11.00
2022-10-31T07:08:32.571Z,11.13
2022-10-31T07:11:00.287Z,11.65
2022-10-31T07:13:27.998Z,12.05
2022-10-31T07:16:00.917Z,12.10
2022-10-31T07:18:28.589Z,11.55
2022-10-31T07:20:56.599Z,12.17
2022-10-31T07:23:24.362Z,12.05
2022-10-31T07:25:58.080Z,12.38
2022-10-31T07:28:25.884Z,12.87
2022-10-31T07:30:54.858Z,12.32
2022-10-31T07:33:22.777Z,11.82
2022-10-31T07:35:50.530Z,11.93
2022-10-31T07:38:18.153Z,12.50
2022-10-31T07:40:45.846Z,11.70
2022-10-31T07:43:14.988Z,11.63
2022-10-31T07:45:42.869Z,12.02
2022-10-31T07:48:10.581Z,12.40
2022-10-31T07:50:38.334Z,12.98
2022-10-31T07:53:08.824Z,12.63
2022-10-31T07:55:37.079Z,13.32
2022-10-31T07:58:06.053Z,13.43
2022-10-31T08:00:36.372Z,12.98
2022-10-31T08:03:05.731Z,13.18
2022-10-31T08:05:33.893Z,14.25
2022-10-31T08:08:02.114Z,14.00
2022-10-31T08:10:30.249Z,13.80
2022-10-31T08:12:59.429Z,13.70
2022-10-31T08:15:27.647Z,15.07
2022-10-31T08:17:56.733Z,14.82
2022-10-31T08:20:24.501Z,14.38
2022-10-31T08:22:56.865Z,14.80
2022-10-31T08:25:24.798Z,15.60
2022-10-31T08:27:53.462Z,16.73
2022-10-31T08:30:21.614Z,17.05
2022-10-31T08:32:49.723Z,15.70
2022-10-31T08:35:18.903Z,16.77
2022-10-31T08:37:46.520Z,16.27
2022-10-31T08:40:14.260Z,16.67
2022-10-31T08:42:41.929Z,17.60
2022-10-31T08:45:10.256Z,16.30
2022-10-31T08:47:37.919Z,17.83
2022-10-31T08:50:06.131Z,16.92
2022-10-31T08:53:03.029Z,16.95
2022-10-31T08:55:23.058Z,16.92
2022-10-31T08:57:50.743Z,15.85
2022-10-31T09:00:18.678Z,15.82
2022-10-31T09:02:46.315Z,14.88
2022-10-31T09:05:14.067Z,15.93
2022-10-31T09:07:43.135Z,15.93
2022-10-31T09:10:10.989Z,16.35
2022-10-31T09:12:38.630Z,16.63
2022-10-31T09:15:07.455Z,15.00
2022-10-31T09:17:35.197Z,13.93
2022-10-31T09:20:02.846Z,13.57
2022-10-31T09:22:30.528Z,13.75
2022-10-31T09:24:59.578Z,13.35
2022-10-31T09:27:27.196Z,12.27
2022-10-31T09:29:54.878Z,12.85
2022-10-31T09:32:22.505Z,12.05
2022-10-31T09:34:50.106Z,12.35
2022-10-31T09:37:17.734Z,11.70
2022-10-31T09:39:45.398Z,11.20
2022-10-31T09:42:54.446Z,10.85
2022-10-31T09:45:28.661Z,11.65
2022-10-31T09:48:19.651Z,9.93
2022-10-31T09:50:49.993Z,10.15
2022-10-31T09:53:25.399Z,9.52
2022-10-31T09:55:53.457Z,9.67
2022-10-31T09:58:22.879Z,9.07
2022-10-31T10:00:51.995Z,9.20
2022-10-31T10:03:29.327Z,8.13
2022-10-31T10:06:03.576Z,7.63
2022-10-31T10:08:33.624Z,7.70
2022-10-31T10:11:10.909Z,7.70
2022-10-31T10:13:47.536Z,7.50
2022-10-31T10:16:24.630Z,6.90
2022-10-31T10:19:02.524Z,7.32
2022-10-31T10:21:39.641Z,6.38
2022-10-31T10:24:18.232Z,6.50
2022-10-31T10:26:52.073Z,6.38
2022-10-31T10:29:32.421Z,6.13
2022-10-31T10:32:04.047Z,6.78
2022-10-31T10:34:35.845Z,7.47
2022-10-31T10:37:06.512Z,6.47
2022-10-31T10:39:40.223Z,5.85
2022-10-31T10:42:29.495Z,5.85
2022-10-31T10:45:14.701Z,6.45
2022-10-31T10:47:44.975Z,7.05
2022-10-31T10:50:16.710Z,6.35
2022-10-31T10:52:51.047Z,6.05
2022-10-31T10:55:27.336Z,6.00
2022-10-31T10:57:59.022Z,6.00
2022-10-31T11:00:28.541Z,5.70
2022-10-31T11:02:57.856Z,6.40
2022-10-31T11:05:28.525Z,6.43
2022-10-31T11:07:56.224Z,6.97
2022-10-31T11:10:24.218Z,8.00
2022-10-31T11:13:05.387Z,7.78
2022-10-31T11:15:37.584Z,8.35
2022-10-31T11:18:07.241Z,8.80
2022-10-31T11:20:37.013Z,8.25
2022-10-31T11:23:16.365Z,8.23
2022-10-31T11:25:50.675Z,7.85
2022-10-31T11:28:18.390Z,7.90
2022-10-31T11:32:20.329Z,7.68
2022-10-31T11:34:51.519Z,7.50
2022-10-31T11:37:22.355Z,8.18
2022-10-31T11:39:54.425Z,7.90
2022-10-31T11:42:24.354Z,8.18
2022-10-31T11:46:17.327Z,9.10
2022-10-31T11:48:49.021Z,9.23
2022-10-31T11:51:22.836Z,9.27
2022-10-31T11:53:56.902Z,9.30
2022-10-31T11:56:28.282Z,8.52
2022-10-31T11:58:59.934Z,9.23
2022-10-31T12:01:30.294Z,9.65
2022-10-31T12:04:06.199Z,9.00
2022-10-31T12:06:36.049Z,7.95
2022-10-31T12:09:03.756Z,9.40
2022-10-31T12:11:44.569Z,8.02
2022-10-31T12:14:22.563Z,7.30
2022-10-31T12:16:55.878Z,7.18
2022-10-31T12:19:32.722Z,7.80
2022-10-31T12:22:18.050Z,7.40
2022-10-31T12:25:04.787Z,7.30
2022-10-31T12:27:40.128Z,7.10
2022-10-31T12:30:17.425Z,7.40
2022-10-31T12:33:06.043Z,7.30
2022-10-31T12:35:43.281Z,6.50
2022-10-31T12:38:38.579Z,6.90
2022-10-31T12:41:18.872Z,7.70
2022-10-31T12:43:49.456Z,7.80
2022-10-31T12:46:26.755Z,7.35
2022-10-31T12:49:08.070Z,8.40
2022-10-31T12:51:42.284Z,8.18
2022-10-31T12:54:54.425Z,8.60
2022-10-31T12:57:26.467Z,9.75
2022-10-31T12:59:56.984Z,8.65
2022-10-31T13:02:29.107Z,9.50
2022-10-31T13:04:59.856Z,9.80
2022-10-31T13:07:30.961Z,9.93
2022-10-31T13:10:02.355Z,10.63
2022-10-31T13:12:34.712Z,10.63
2022-10-31T13:15:07.334Z,11.95
2022-10-31T13:17:37.272Z,11.93
2022-10-31T13:20:19.898Z,12.45
2022-10-31T13:22:49.808Z,13.07
2022-10-31T13:25:19.498Z,13.65
2022-10-31T13:27:51.460Z,14.63
2022-10-31T13:30:21.120Z,14.70
2022-10-31T13:32:52.076Z,14.18
2022-10-31T13:35:27.544Z,14.65
2022-10-31T13:38:04.612Z,16.48
2022-10-31T13:40:37.818Z,17.15
2022-10-31T13:43:12.107Z,16.90
2022-10-31T13:45:50.088Z,17.50
2022-10-31T13:48:35.201Z,18.15
2022-10-31T13:51:07.208Z,17.42
2022-10-31T13:53:41.122Z,17.40
2022-10-31T13:56:21.120Z,16.60
2022-10-31T13:59:20.736Z,17.45
2022-10-31T14:01:50.852Z,17.43
2022-10-31T14:04:24.959Z,16.67
2022-10-31T14:07:00.163Z,18.55
2022-10-31T14:09:31.522Z,18.40
2022-10-31T14:12:01.740Z,18.05
2022-10-31T14:14:34.443Z,18.13
2022-10-31T14:17:02.604Z,18.20
2022-10-31T14:19:30.246Z,18.08
2022-10-31T14:21:59.285Z,18.80
2022-10-31T14:24:38.380Z,20.87
2022-10-31T14:27:37.154Z,19.13
2022-10-31T14:30:26.041Z,19.20
2022-10-31T14:32:55.724Z,19.05
2022-10-31T14:35:27.819Z,19.10
2022-10-31T14:38:06.872Z,19.87
2022-10-31T14:40:41.854Z,19.02
2022-10-31T14:43:33.225Z,20.40
2022-10-31T14:46:03.398Z,19.67
2022-10-31T14:48:55.750Z,19.88
2022-10-31T14:51:24.749Z,19.65
2022-10-31T14:53:55.499Z,18.60
2022-10-31T14:56:27.321Z,19.73
2022-10-31T14:58:56.338Z,18.77
2022-10-31T15:01:27.592Z,19.60
2022-10-31T15:04:21.967Z,20.40
2022-10-31T15:06:46.741Z,18.33
2022-10-31T15:09:27.228Z,19.33
2022-10-31T15:11:54.972Z,20.63
2022-10-31T15:14:25.989Z,19.50
2022-10-31T15:16:54.055Z,20.10
2022-10-31T15:19:25.531Z,19.40
2022-10-31T15:21:54.939Z,20.17
2022-10-31T15:24:22.805Z,20.10
2022-10-31T15:26:53.715Z,20.00
2022-10-31T15:29:23.607Z,20.17
2022-10-31T15:31:52.600Z,18.42
2022-10-31T15:34:23.738Z,19.88
2022-10-31T15:36:51.467Z,20.35
2022-10-31T15:39:19.612Z,18.88
2022-10-31T15:41:54.767Z,19.67
2022-10-31T15:44:25.619Z,19.60
2022-10-31T15:46:57.653Z,18.42
2022-10-31T15:49:35.401Z,19.30
2022-10-31T15:52:08.561Z,20.90
2022-10-31T15:54:37.100Z,19.25
2022-10-31T15:57:06.200Z,18.90
2022-10-31T15:59:33.947Z,18.92
2022-10-31T16:02:03.595Z,19.52
2022-10-31T16:04:31.639Z,18.45
2022-10-31T16:07:04.390Z,18.00
2022-10-31T16:09:31.994Z,19.88
2022-10-31T16:12:00.452Z,19.25
2022-10-31T16:14:31.482Z,19.40
2022-10-31T16:17:00.080Z,18.52
2022-10-31T16:19:30.321Z,19.17
2022-10-31T16:22:05.134Z,19.10
2022-10-31T16:24:34.031Z,19.40
2022-10-31T16:27:05.901Z,19.30
2022-10-31T16:35:49.248Z,21.15
2022-10-31T16:38:17.115Z,20.73
2022-10-31T16:40:45.432Z,20.98
2022-10-31T16:43:14.577Z,21.20
2022-10-31T16:45:44.994Z,20.17
2022-10-31T16:48:15.804Z,21.52
2022-10-31T16:50:43.676Z,21.60
2022-10-31T16:53:15.558Z,21.98
2022-10-31T16:55:47.208Z,20.98
2022-10-31T16:58:18.701Z,22.25
2022-10-31T17:00:46.514Z,22.15
2022-10-31T17:03:14.151Z,21.83
2022-10-31T17:05:42.002Z,22.95
2022-10-31T17:08:09.655Z,21.58
2022-10-31T17:10:39.021Z,22.48
2022-10-31T17:13:08.450Z,24.42
2022-10-31T17:15:41.053Z,21.92
2022-10-31T17:20:32.643Z,23.85
2022-10-31T17:23:00.944Z,22.17
2022-10-31T17:25:31.802Z,23.75
2022-10-31T17:27:59.975Z,23.77
2022-10-31T17:30:27.597Z,23.30
2022-10-31T17:32:55.564Z,23.02
2022-10-31T17:35:23.942Z,22.20
2022-10-31T17:37:53.026Z,23.60
2022-10-31T17:40:22.904Z,23.67
2022-10-31T17:42:51.439Z,23.97
2022-10-31T17:45:19.116Z,21.52
2022-10-31T17:47:48.070Z,23.48
2022-10-31T17:50:15.968Z,24.08
2022-10-31T17:52:43.681Z,22.80
2022-10-31T17:55:12.805Z,21.73
2022-10-31T17:57:40.800Z,22.60
2022-10-31T18:00:10.521Z,23.10
2022-10-31T18:02:38.335Z,23.42
2022-10-31T18:05:06.967Z,21.98
2022-10-31T18:07:34.982Z,22.07
2022-10-31T18:10:02.928Z,21.52
2022-10-31T18:12:32.377Z,21.02
2022-10-31T18:15:00.240Z,20.13
2022-10-31T18:17:27.879Z,21.48
2022-10-31T18:19:55.677Z,20.25
2022-10-31T18:22:23.375Z,22.85
2022-10-31T18:24:50.957Z,23.67
2022-10-31T18:27:18.561Z,21.55
2022-10-31T18:29:47.587Z,21.33
2022-10-31T18:32:15.219Z,21.52
2022-10-31T18:34:42.870Z,20.35
2022-10-31T18:37:10.567Z,20.85
2022-10-31T18:39:38.172Z,20.30
2022-10-31T18:42:05.890Z,20.60
2022-10-31T18:44:34.301Z,23.00
2022-10-31T18:47:03.359Z,20.43
2022-10-31T18:49:32.818Z,19.65
2022-10-31T18:52:00.798Z,19.37
2022-10-31T18:54:28.520Z,20.23
2022-10-31T18:56:56.685Z,19.47
2022-10-31T18:59:24.339Z,21.60
2022-10-31T19:01:52.078Z,19.48
2022-10-31T19:04:21.229Z,19.95
2022-10-31T19:06:48.959Z,18.73
2022-10-31T19:09:16.579Z,18.00
2022-10-31T19:11:44.199Z,19.08
2022-10-31T19:14:13.716Z,18.13
2022-10-31T19:16:41.728Z,18.70
2022-10-31T19:19:10.684Z,18.27
2022-10-31T19:21:39.705Z,17.13
2022-10-31T19:24:07.509Z,18.20
2022-10-31T19:26:35.370Z,18.25
2022-10-31T19:29:03.066Z,17.73
2022-10-31T19:31:30.807Z,16.83
2022-10-31T19:33:58.470Z,16.90
2022-10-31T19:36:26.751Z,17.92
2022-10-31T19:38:55.800Z,16.90
2022-10-31T19:41:26.238Z,15.95
2022-10-31T19:43:54.479Z,16.45
2022-10-31T19:46:47.851Z,15.10
2022-10-31T19:49:11.416Z,15.45
2022-10-31T19:51:39.082Z,15.73
2022-10-31T19:54:08.395Z,15.80
2022-10-31T19:56:36.029Z,15.23
2022-10-31T19:59:04.032Z,15.70
2022-10-31T20:01:31.737Z,16.08
2022-10-31T20:03:59.448Z,15.57
2022-10-31T20:06:28.831Z,14.68
2022-10-31T20:08:57.214Z,14.65
2022-10-31T20:11:27.704Z,14.47
2022-10-31T20:13:56.280Z,14.35
2022-10-31T20:16:24.383Z,14.93
2022-10-31T20:18:52.272Z,16.38
2022-10-31T20:21:22.200Z,16.17
2022-10-31T20:23:49.928Z,15.77
2022-10-31T20:26:20.676Z,14.85
2022-10-31T20:28:49.684Z,14.70
2022-10-31T20:31:19.388Z,14.27
2022-10-31T20:33:47.240Z,14.52
2022-10-31T20:36:14.971Z,14.13
2022-10-31T20:38:43.290Z,13.95
2022-10-31T20:41:11.915Z,13.80
2022-10-31T20:43:39.636Z,14.00
2022-10-31T20:46:11.590Z,14.18
2022-10-31T20:48:39.409Z,13.80
2022-10-31T20:51:08.804Z,13.27
2022-10-31T20:53:36.538Z,14.40
2022-10-31T20:56:07.469Z,13.77
2022-10-31T20:58:36.126Z,14.20
2022-10-31T21:01:04.285Z,13.75
2022-10-31T21:03:36.418Z,16.80
2022-10-31T21:06:06.745Z,16.15
2022-10-31T21:08:34.612Z,14.57
2022-10-31T21:11:05.943Z,13.18
2022-10-31T21:13:40.525Z,13.55
2022-10-31T21:16:10.760Z,12.90
2022-10-31T21:18:41.199Z,12.52
2022-10-31T21:21:09.676Z,12.77
2022-10-31T21:23:37.401Z,12.75
2022-10-31T21:26:08.342Z,13.15
2022-10-31T21:28:36.145Z,12.98
2022-10-31T21:31:07.673Z,13.43
2022-10-31T21:33:35.583Z,12.98
2022-10-31T21:36:05.775Z,12.18
2022-10-31T21:38:34.195Z,12.02
2022-10-31T21:41:02.328Z,12.48
2022-10-31T21:43:30.331Z,12.05
2022-10-31T21:46:03.514Z,11.68
2022-10-31T21:48:31.192Z,11.18
2022-10-31T21:50:58.834Z,11.17
2022-10-31T21:53:45.553Z,10.50
2022-10-31T21:56:13.214Z,10.05
2022-10-31T21:58:40.880Z,9.80
2022-10-31T22:01:08.724Z,9.35
2022-10-31T22:03:36.915Z,8.50
2022-10-31T22:06:04.834Z,8.05
2022-10-31T22:08:34.293Z,8.00
2022-10-31T22:11:03.007Z,7.30
2022-10-31T22:13:31.379Z,7.30
2022-10-31T22:16:01.628Z,7.15
2022-10-31T22:18:29.661Z,6.70
2022-10-31T22:21:02.314Z,6.57
2022-10-31T22:23:30.859Z,6.90
2022-10-31T22:26:03.585Z,6.32
2022-10-31T22:28:31.546Z,6.47
2022-10-31T22:30:59.498Z,5.70
2022-10-31T22:33:27.198Z,5.50
2022-10-31T22:35:54.900Z,5.65
2022-10-31T22:38:22.538Z,5.20
2022-10-31T22:40:50.225Z,4.93
2022-10-31T22:43:19.273Z,4.60
2022-10-31T22:45:54.911Z,4.88
2022-10-31T22:48:22.608Z,4.38
2022-10-31T22:50:50.235Z,4.25
2022-10-31T22:53:17.843Z,4.40
2022-10-31T22:55:45.668Z,4.15
2022-10-31T22:58:13.861Z,4.30
2022-10-31T23:00:43.093Z,4.00
2022-10-31T23:03:10.776Z,4.20
2022-10-31T23:05:38.423Z,4.43
2022-10-31T23:08:06.599Z,4.07
2022-10-31T23:10:35.733Z,3.80
2022-10-31T23:13:20.993Z,4.10
2022-10-31T23:15:49.991Z,4.20
2022-10-31T23:18:36.628Z,4.63
2022-10-31T23:21:06.485Z,4.05
2022-10-31T23:23:35.298Z,3.88
2022-10-31T23:26:20.671Z,4.47
2022-10-31T23:28:48.266Z,4.32
2022-10-31T23:31:17.512Z,4.55
2022-10-31T23:33:45.199Z,4.20
2022-10-31T23:36:12.850Z,4.00
2022-10-31T23:38:40.489Z,3.88
2022-10-31T23:41:08.118Z,4.05
2022-10-31T23:43:35.779Z,3.70
2022-10-31T23:46:03.421Z,4.20
2022-10-31T23:48:32.452Z,4.43
2022-10-31T23:51:00.077Z,4.07
2022-10-31T23:53:27.742Z,3.90
2022-10-31T23:55:55.879Z,3.92
2022-10-31T23:58:23.562Z,3.60
